sensor_id;sensor_type;location;lat;lon;timestamp;P1;durP1;ratioP1;P2;durP2;ratioP2
75639;SDS011;64233;51.486;6.332;2023-08-20T00:00:12;4.82;;;3.63;;
75639;SDS011;64233;51.486;6.332;2023-08-20T00:02:40;5.32;;;3.90;;
75639;SDS011;64233;51.486;6.332;2023-08-20T00:05:07;7.78;;;4.20;;
75639;SDS011;64233;51.486;6.332;2023-08-20T00:07:34;7.75;;;3.97;;
75639;SDS011;64233;51.486;6.332;2023-08-20T00:09:59;6.15;;;3.33;;
75639;SDS011;64233;51.486;6.332;2023-08-20T00:12:25;5.25;;;3.85;;
75639;SDS011;64233;51.486;6.332;2023-08-20T00:14:51;9.63;;;2.97;;
75639;SDS011;64233;51.486;6.332;2023-08-20T00:17:21;5.15;;;3.22;;
75639;SDS011;64233;51.486;6.332;2023-08-20T00:19:49;6.10;;;3.95;;
75639;SDS011;64233;51.486;6.332;2023-08-20T00:22:15;4.65;;;3.42;;
75639;SDS011;64233;51.486;6.332;2023-08-20T00:24:41;5.30;;;3.03;;
75639;SDS011;64233;51.486;6.332;2023-08-20T00:27:07;6.93;;;3.53;;
75639;SDS011;64233;51.486;6.332;2023-08-20T00:29:32;6.25;;;4.70;;
75639;SDS011;64233;51.486;6.332;2023-08-20T00:31:57;9.43;;;3.70;;
75639;SDS011;64233;51.486;6.332;2023-08-20T00:34:23;5.00;;;3.80;;
75639;SDS011;64233;51.486;6.332;2023-08-20T00:36:48;4.78;;;3.47;;
75639;SDS011;64233;51.486;6.332;2023-08-20T00:39:13;5.17;;;3.23;;
75639;SDS011;64233;51.486;6.332;2023-08-20T00:41:40;8.15;;;3.70;;
75639;SDS011;64233;51.486;6.332;2023-08-20T00:44:05;4.93;;;3.38;;
75639;SDS011;64233;51.486;6.332;2023-08-20T00:46:31;7.45;;;3.58;;
75639;SDS011;64233;51.486;6.332;2023-08-20T00:48:56;5.47;;;3.40;;
75639;SDS011;64233;51.486;6.332;2023-08-20T00:51:22;6.35;;;3.67;;
75639;SDS011;64233;51.486;6.332;2023-08-20T00:53:48;3.92;;;3.25;;
75639;SDS011;64233;51.486;6.332;2023-08-20T00:56:13;7.93;;;3.22;;
75639;SDS011;64233;51.486;6.332;2023-08-20T00:58:39;7.93;;;3.90;;
75639;SDS011;64233;51.486;6.332;2023-08-20T01:01:05;6.28;;;3.53;;
75639;SDS011;64233;51.486;6.332;2023-08-20T01:03:30;8.43;;;3.85;;
75639;SDS011;64233;51.486;6.332;2023-08-20T01:05:58;6.88;;;3.30;;
75639;SDS011;64233;51.486;6.332;2023-08-20T01:08:38;5.43;;;3.45;;
75639;SDS011;64233;51.486;6.332;2023-08-20T01:11:07;9.73;;;4.35;;
75639;SDS011;64233;51.486;6.332;2023-08-20T01:13:39;9.02;;;4.60;;
75639;SDS011;64233;51.486;6.332;2023-08-20T01:16:04;8.20;;;4.87;;
75639;SDS011;64233;51.486;6.332;2023-08-20T01:18:29;10.93;;;5.17;;
75639;SDS011;64233;51.486;6.332;2023-08-20T01:20:58;9.40;;;4.90;;
75639;SDS011;64233;51.486;6.332;2023-08-20T01:23:34;7.03;;;4.65;;
75639;SDS011;64233;51.486;6.332;2023-08-20T01:29:05;10.18;;;5.18;;
75639;SDS011;64233;51.486;6.332;2023-08-20T01:31:31;8.90;;;5.25;;
75639;SDS011;64233;51.486;6.332;2023-08-20T01:33:57;10.98;;;5.60;;
75639;SDS011;64233;51.486;6.332;2023-08-20T01:36:23;8.85;;;5.47;;
75639;SDS011;64233;51.486;6.332;2023-08-20T01:38:48;8.02;;;4.85;;
75639;SDS011;64233;51.486;6.332;2023-08-20T01:41:13;6.87;;;4.47;;
75639;SDS011;64233;51.486;6.332;2023-08-20T01:43:39;8.15;;;4.30;;
75639;SDS011;64233;51.486;6.332;2023-08-20T01:46:05;7.87;;;5.00;;
75639;SDS011;64233;51.486;6.332;2023-08-20T01:48:30;5.78;;;4.53;;
75639;SDS011;64233;51.486;6.332;2023-08-20T01:50:55;10.15;;;4.57;;
75639;SDS011;64233;51.486;6.332;2023-08-20T01:53:20;8.43;;;4.97;;
75639;SDS011;64233;51.486;6.332;2023-08-20T01:55:46;8.93;;;5.80;;
75639;SDS011;64233;51.486;6.332;2023-08-20T01:58:11;5.97;;;4.40;;
75639;SDS011;64233;51.486;6.332;2023-08-20T02:00:36;6.75;;;4.38;;
75639;SDS011;64233;51.486;6.332;2023-08-20T02:03:02;10.67;;;5.03;;
75639;SDS011;64233;51.486;6.332;2023-08-20T02:05:28;13.18;;;5.25;;
75639;SDS011;64233;51.486;6.332;2023-08-20T02:07:54;9.38;;;4.95;;
75639;SDS011;64233;51.486;6.332;2023-08-20T02:10:19;10.73;;;5.47;;
75639;SDS011;64233;51.486;6.332;2023-08-20T02:12:46;14.57;;;6.20;;
75639;SDS011;64233;51.486;6.332;2023-08-20T02:15:11;26.50;;;6.27;;
75639;SDS011;64233;51.486;6.332;2023-08-20T02:17:36;12.85;;;6.88;;
75639;SDS011;64233;51.486;6.332;2023-08-20T02:20:02;13.18;;;6.22;;
75639;SDS011;64233;51.486;6.332;2023-08-20T02:22:29;13.27;;;6.40;;
75639;SDS011;64233;51.486;6.332;2023-08-20T02:24:54;14.30;;;7.53;;
75639;SDS011;64233;51.486;6.332;2023-08-20T02:27:20;16.15;;;6.53;;
75639;SDS011;64233;51.486;6.332;2023-08-20T02:29:45;9.45;;;6.93;;
75639;SDS011;64233;51.486;6.332;2023-08-20T02:32:10;13.60;;;6.93;;
75639;SDS011;64233;51.486;6.332;2023-08-20T02:34:35;14.57;;;8.13;;
75639;SDS011;64233;51.486;6.332;2023-08-20T02:37:01;14.45;;;7.40;;
75639;SDS011;64233;51.486;6.332;2023-08-20T02:39:26;11.27;;;6.23;;
75639;SDS011;64233;51.486;6.332;2023-08-20T02:41:51;9.80;;;6.33;;
75639;SDS011;64233;51.486;6.332;2023-08-20T02:44:16;17.40;;;7.53;;
75639;SDS011;64233;51.486;6.332;2023-08-20T02:46:42;15.53;;;8.63;;
75639;SDS011;64233;51.486;6.332;2023-08-20T02:49:09;13.45;;;6.97;;
75639;SDS011;64233;51.486;6.332;2023-08-20T02:51:35;13.55;;;7.45;;
75639;SDS011;64233;51.486;6.332;2023-08-20T02:54:00;11.63;;;7.37;;
75639;SDS011;64233;51.486;6.332;2023-08-20T02:56:25;12.57;;;7.22;;
75639;SDS011;64233;51.486;6.332;2023-08-20T02:58:50;12.03;;;7.83;;
75639;SDS011;64233;51.486;6.332;2023-08-20T03:01:22;16.30;;;7.78;;
75639;SDS011;64233;51.486;6.332;2023-08-20T03:03:48;14.45;;;8.00;;
75639;SDS011;64233;51.486;6.332;2023-08-20T03:06:14;18.48;;;9.35;;
75639;SDS011;64233;51.486;6.332;2023-08-20T03:08:39;14.88;;;8.32;;
75639;SDS011;64233;51.486;6.332;2023-08-20T03:11:04;15.15;;;8.55;;
75639;SDS011;64233;51.486;6.332;2023-08-20T03:13:30;16.15;;;7.85;;
75639;SDS011;64233;51.486;6.332;2023-08-20T03:15:55;11.67;;;8.83;;
75639;SDS011;64233;51.486;6.332;2023-08-20T03:18:20;13.77;;;8.90;;
75639;SDS011;64233;51.486;6.332;2023-08-20T03:20:45;20.30;;;9.30;;
75639;SDS011;64233;51.486;6.332;2023-08-20T03:23:11;14.67;;;9.97;;
75639;SDS011;64233;51.486;6.332;2023-08-20T03:25:36;14.48;;;8.27;;
75639;SDS011;64233;51.486;6.332;2023-08-20T03:28:01;15.17;;;8.77;;
75639;SDS011;64233;51.486;6.332;2023-08-20T03:30:27;13.52;;;9.70;;
75639;SDS011;64233;51.486;6.332;2023-08-20T03:32:52;13.73;;;8.68;;
75639;SDS011;64233;51.486;6.332;2023-08-20T03:35:18;12.93;;;8.75;;
75639;SDS011;64233;51.486;6.332;2023-08-20T03:37:43;13.40;;;9.13;;
75639;SDS011;64233;51.486;6.332;2023-08-20T03:40:08;15.43;;;8.60;;
75639;SDS011;64233;51.486;6.332;2023-08-20T03:42:34;12.52;;;8.90;;
75639;SDS011;64233;51.486;6.332;2023-08-20T03:44:59;12.15;;;7.85;;
75639;SDS011;64233;51.486;6.332;2023-08-20T03:47:24;12.98;;;7.30;;
75639;SDS011;64233;51.486;6.332;2023-08-20T03:49:50;10.18;;;7.57;;
75639;SDS011;64233;51.486;6.332;2023-08-20T03:52:15;14.00;;;7.63;;
75639;SDS011;64233;51.486;6.332;2023-08-20T03:54:40;14.38;;;8.32;;
75639;SDS011;64233;51.486;6.332;2023-08-20T03:57:06;14.77;;;8.70;;
75639;SDS011;64233;51.486;6.332;2023-08-20T03:59:31;12.50;;;7.63;;
75639;SDS011;64233;51.486;6.332;2023-08-20T04:01:56;12.00;;;7.50;;
75639;SDS011;64233;51.486;6.332;2023-08-20T04:04:22;16.23;;;8.63;;
75639;SDS011;64233;51.486;6.332;2023-08-20T04:06:47;14.30;;;9.05;;
75639;SDS011;64233;51.486;6.332;2023-08-20T04:09:13;14.07;;;8.30;;
75639;SDS011;64233;51.486;6.332;2023-08-20T04:11:38;15.13;;;9.00;;
75639;SDS011;64233;51.486;6.332;2023-08-20T04:14:03;14.88;;;8.25;;
75639;SDS011;64233;51.486;6.332;2023-08-20T04:16:29;11.93;;;6.97;;
75639;SDS011;64233;51.486;6.332;2023-08-20T04:18:54;13.65;;;7.78;;
75639;SDS011;64233;51.486;6.332;2023-08-20T04:21:20;10.13;;;7.90;;
75639;SDS011;64233;51.486;6.332;2023-08-20T04:23:45;13.87;;;8.83;;
75639;SDS011;64233;51.486;6.332;2023-08-20T04:26:10;15.05;;;8.38;;
75639;SDS011;64233;51.486;6.332;2023-08-20T04:28:36;16.27;;;8.30;;
75639;SDS011;64233;51.486;6.332;2023-08-20T04:31:01;15.90;;;7.70;;
75639;SDS011;64233;51.486;6.332;2023-08-20T04:33:27;13.07;;;7.78;;
75639;SDS011;64233;51.486;6.332;2023-08-20T04:35:53;10.82;;;7.55;;
75639;SDS011;64233;51.486;6.332;2023-08-20T04:38:18;14.73;;;7.47;;
75639;SDS011;64233;51.486;6.332;2023-08-20T04:40:47;12.55;;;7.22;;
75639;SDS011;64233;51.486;6.332;2023-08-20T04:43:13;11.95;;;7.60;;
75639;SDS011;64233;51.486;6.332;2023-08-20T04:45:38;10.20;;;7.55;;
75639;SDS011;64233;51.486;6.332;2023-08-20T04:48:03;10.53;;;7.10;;
75639;SDS011;64233;51.486;6.332;2023-08-20T04:50:29;10.73;;;7.22;;
75639;SDS011;64233;51.486;6.332;2023-08-20T04:52:55;10.65;;;7.38;;
75639;SDS011;64233;51.486;6.332;2023-08-20T04:55:20;12.38;;;7.05;;
75639;SDS011;64233;51.486;6.332;2023-08-20T04:57:45;13.10;;;7.03;;
75639;SDS011;64233;51.486;6.332;2023-08-20T05:00:11;9.17;;;6.33;;
75639;SDS011;64233;51.486;6.332;2023-08-20T05:02:36;11.73;;;6.93;;
75639;SDS011;64233;51.486;6.332;2023-08-20T05:05:02;9.10;;;6.90;;
75639;SDS011;64233;51.486;6.332;2023-08-20T05:07:28;10.73;;;6.65;;
75639;SDS011;64233;51.486;6.332;2023-08-20T05:09:53;10.57;;;7.10;;
75639;SDS011;64233;51.486;6.332;2023-08-20T05:12:18;11.20;;;6.78;;
75639;SDS011;64233;51.486;6.332;2023-08-20T05:14:44;9.07;;;6.20;;
75639;SDS011;64233;51.486;6.332;2023-08-20T05:17:09;10.07;;;6.93;;
75639;SDS011;64233;51.486;6.332;2023-08-20T05:19:34;8.60;;;6.47;;
75639;SDS011;64233;51.486;6.332;2023-08-20T05:21:59;9.87;;;7.37;;
75639;SDS011;64233;51.486;6.332;2023-08-20T05:24:25;8.45;;;6.13;;
75639;SDS011;64233;51.486;6.332;2023-08-20T05:27:03;11.18;;;7.07;;
75639;SDS011;64233;51.486;6.332;2023-08-20T05:29:30;10.25;;;7.03;;
75639;SDS011;64233;51.486;6.332;2023-08-20T05:31:55;10.68;;;7.25;;
75639;SDS011;64233;51.486;6.332;2023-08-20T05:34:20;12.27;;;8.40;;
75639;SDS011;64233;51.486;6.332;2023-08-20T05:36:46;11.32;;;7.88;;
75639;SDS011;64233;51.486;6.332;2023-08-20T05:39:11;14.97;;;7.40;;
75639;SDS011;64233;51.486;6.332;2023-08-20T05:41:36;14.80;;;8.10;;
75639;SDS011;64233;51.486;6.332;2023-08-20T05:44:01;16.58;;;8.90;;
75639;SDS011;64233;51.486;6.332;2023-08-20T05:46:27;12.95;;;8.80;;
75639;SDS011;64233;51.486;6.332;2023-08-20T05:48:52;15.27;;;8.60;;
75639;SDS011;64233;51.486;6.332;2023-08-20T05:51:17;10.00;;;7.43;;
75639;SDS011;64233;51.486;6.332;2023-08-20T05:53:43;11.47;;;7.30;;
75639;SDS011;64233;51.486;6.332;2023-08-20T05:56:08;12.23;;;8.30;;
75639;SDS011;64233;51.486;6.332;2023-08-20T05:58:34;11.82;;;8.73;;
75639;SDS011;64233;51.486;6.332;2023-08-20T06:00:59;13.25;;;8.60;;
75639;SDS011;64233;51.486;6.332;2023-08-20T06:03:24;15.52;;;9.07;;
75639;SDS011;64233;51.486;6.332;2023-08-20T06:05:50;12.50;;;9.37;;
75639;SDS011;64233;51.486;6.332;2023-08-20T06:08:15;16.87;;;9.03;;
75639;SDS011;64233;51.486;6.332;2023-08-20T06:10:40;14.03;;;10.10;;
75639;SDS011;64233;51.486;6.332;2023-08-20T06:13:05;14.18;;;8.60;;
75639;SDS011;64233;51.486;6.332;2023-08-20T06:15:31;15.65;;;8.85;;
75639;SDS011;64233;51.486;6.332;2023-08-20T06:17:56;14.07;;;8.85;;
75639;SDS011;64233;51.486;6.332;2023-08-20T06:20:21;13.47;;;9.17;;
75639;SDS011;64233;51.486;6.332;2023-08-20T06:22:47;14.15;;;8.93;;
75639;SDS011;64233;51.486;6.332;2023-08-20T06:25:12;17.70;;;10.10;;
75639;SDS011;64233;51.486;6.332;2023-08-20T06:27:37;19.67;;;9.50;;
75639;SDS011;64233;51.486;6.332;2023-08-20T06:30:02;17.03;;;9.90;;
75639;SDS011;64233;51.486;6.332;2023-08-20T06:32:28;18.15;;;9.93;;
75639;SDS011;64233;51.486;6.332;2023-08-20T06:34:53;15.60;;;9.07;;
75639;SDS011;64233;51.486;6.332;2023-08-20T06:37:18;18.13;;;9.57;;
75639;SDS011;64233;51.486;6.332;2023-08-20T06:39:44;18.65;;;9.50;;
75639;SDS011;64233;51.486;6.332;2023-08-20T06:42:09;13.23;;;9.60;;
75639;SDS011;64233;51.486;6.332;2023-08-20T06:44:34;15.95;;;10.05;;
75639;SDS011;64233;51.486;6.332;2023-08-20T06:47:00;16.00;;;9.07;;
75639;SDS011;64233;51.486;6.332;2023-08-20T06:49:26;19.63;;;10.30;;
75639;SDS011;64233;51.486;6.332;2023-08-20T06:51:51;16.80;;;10.48;;
75639;SDS011;64233;51.486;6.332;2023-08-20T06:54:16;17.92;;;9.70;;
75639;SDS011;64233;51.486;6.332;2023-08-20T06:56:42;17.77;;;10.25;;
75639;SDS011;64233;51.486;6.332;2023-08-20T06:59:07;18.88;;;9.48;;
75639;SDS011;64233;51.486;6.332;2023-08-20T07:01:32;17.03;;;9.47;;
75639;SDS011;64233;51.486;6.332;2023-08-20T07:03:58;13.73;;;8.93;;
75639;SDS011;64233;51.486;6.332;2023-08-20T07:06:23;15.48;;;9.98;;
75639;SDS011;64233;51.486;6.332;2023-08-20T07:08:48;20.23;;;9.13;;
75639;SDS011;64233;51.486;6.332;2023-08-20T07:11:14;17.45;;;10.85;;
75639;SDS011;64233;51.486;6.332;2023-08-20T07:13:40;20.67;;;11.63;;
75639;SDS011;64233;51.486;6.332;2023-08-20T07:16:05;18.17;;;11.27;;
75639;SDS011;64233;51.486;6.332;2023-08-20T07:18:30;19.80;;;11.77;;
75639;SDS011;64233;51.486;6.332;2023-08-20T07:20:56;20.50;;;10.63;;
75639;SDS011;64233;51.486;6.332;2023-08-20T07:23:21;20.83;;;11.75;;
75639;SDS011;64233;51.486;6.332;2023-08-20T07:25:47;16.60;;;9.70;;
75639;SDS011;64233;51.486;6.332;2023-08-20T07:28:13;17.13;;;10.73;;
75639;SDS011;64233;51.486;6.332;2023-08-20T07:30:39;20.17;;;9.68;;
75639;SDS011;64233;51.486;6.332;2023-08-20T07:33:05;16.83;;;10.32;;
75639;SDS011;64233;51.486;6.332;2023-08-20T07:35:31;17.75;;;9.70;;
75639;SDS011;64233;51.486;6.332;2023-08-20T07:37:56;21.27;;;10.90;;
75639;SDS011;64233;51.486;6.332;2023-08-20T07:40:22;16.27;;;10.18;;
75639;SDS011;64233;51.486;6.332;2023-08-20T07:42:47;15.63;;;9.73;;
75639;SDS011;64233;51.486;6.332;2023-08-20T07:45:12;15.80;;;10.00;;
75639;SDS011;64233;51.486;6.332;2023-08-20T07:47:38;20.42;;;9.13;;
75639;SDS011;64233;51.486;6.332;2023-08-20T07:50:04;17.88;;;10.45;;
75639;SDS011;64233;51.486;6.332;2023-08-20T07:52:30;16.67;;;10.45;;
75639;SDS011;64233;51.486;6.332;2023-08-20T07:54:58;21.77;;;12.02;;
75639;SDS011;64233;51.486;6.332;2023-08-20T07:57:24;17.15;;;10.40;;
75639;SDS011;64233;51.486;6.332;2023-08-20T07:59:49;18.40;;;11.38;;
75639;SDS011;64233;51.486;6.332;2023-08-20T08:02:15;22.88;;;11.80;;
75639;SDS011;64233;51.486;6.332;2023-08-20T08:04:41;20.17;;;11.23;;
75639;SDS011;64233;51.486;6.332;2023-08-20T08:07:06;18.75;;;11.43;;
75639;SDS011;64233;51.486;6.332;2023-08-20T08:09:32;18.70;;;10.05;;
75639;SDS011;64233;51.486;6.332;2023-08-20T08:11:58;20.95;;;11.15;;
75639;SDS011;64233;51.486;6.332;2023-08-20T08:14:24;16.17;;;10.07;;
75639;SDS011;64233;51.486;6.332;2023-08-20T08:16:49;19.60;;;12.73;;
75639;SDS011;64233;51.486;6.332;2023-08-20T08:19:15;19.83;;;10.23;;
75639;SDS011;64233;51.486;6.332;2023-08-20T08:21:41;21.25;;;11.20;;
75639;SDS011;64233;51.486;6.332;2023-08-20T08:24:08;16.08;;;9.98;;
75639;SDS011;64233;51.486;6.332;2023-08-20T08:26:34;16.55;;;10.20;;
75639;SDS011;64233;51.486;6.332;2023-08-20T08:29:00;21.33;;;11.85;;
75639;SDS011;64233;51.486;6.332;2023-08-20T08:31:25;18.63;;;10.77;;
75639;SDS011;64233;51.486;6.332;2023-08-20T08:33:50;18.40;;;9.33;;
75639;SDS011;64233;51.486;6.332;2023-08-20T08:36:16;16.17;;;8.57;;
75639;SDS011;64233;51.486;6.332;2023-08-20T08:38:42;15.52;;;9.10;;
75639;SDS011;64233;51.486;6.332;2023-08-20T08:41:09;15.50;;;8.52;;
75639;SDS011;64233;51.486;6.332;2023-08-20T08:43:35;19.40;;;9.50;;
75639;SDS011;64233;51.486;6.332;2023-08-20T08:46:14;14.32;;;8.82;;
75639;SDS011;64233;51.486;6.332;2023-08-20T08:48:43;15.57;;;7.90;;
75639;SDS011;64233;51.486;6.332;2023-08-20T08:51:10;13.85;;;7.75;;
75639;SDS011;64233;51.486;6.332;2023-08-20T08:53:37;12.90;;;8.25;;
75639;SDS011;64233;51.486;6.332;2023-08-20T08:56:02;11.32;;;7.40;;
75639;SDS011;64233;51.486;6.332;2023-08-20T08:58:28;11.13;;;7.35;;
75639;SDS011;64233;51.486;6.332;2023-08-20T09:00:53;14.90;;;8.23;;
75639;SDS011;64233;51.486;6.332;2023-08-20T09:03:19;12.80;;;7.18;;
75639;SDS011;64233;51.486;6.332;2023-08-20T09:05:48;14.30;;;6.97;;
75639;SDS011;64233;51.486;6.332;2023-08-20T09:08:21;12.73;;;7.05;;
75639;SDS011;64233;51.486;6.332;2023-08-20T09:10:49;15.73;;;7.32;;
75639;SDS011;64233;51.486;6.332;2023-08-20T09:13:15;12.02;;;5.90;;
75639;SDS011;64233;51.486;6.332;2023-08-20T09:15:40;8.88;;;6.38;;
75639;SDS011;64233;51.486;6.332;2023-08-20T09:18:08;6.80;;;5.47;;
75639;SDS011;64233;51.486;6.332;2023-08-20T09:20:35;10.45;;;5.65;;
75639;SDS011;64233;51.486;6.332;2023-08-20T09:23:01;6.07;;;5.43;;
75639;SDS011;64233;51.486;6.332;2023-08-20T09:25:26;7.70;;;5.13;;
75639;SDS011;64233;51.486;6.332;2023-08-20T09:27:53;11.77;;;6.72;;
75639;SDS011;64233;51.486;6.332;2023-08-20T09:30:19;12.35;;;6.85;;
75639;SDS011;64233;51.486;6.332;2023-08-20T09:32:45;11.02;;;6.07;;
75639;SDS011;64233;51.486;6.332;2023-08-20T09:35:27;9.45;;;6.63;;
75639;SDS011;64233;51.486;6.332;2023-08-20T09:37:52;13.87;;;6.27;;
75639;SDS011;64233;51.486;6.332;2023-08-20T09:40:23;8.98;;;5.80;;
75639;SDS011;64233;51.486;6.332;2023-08-20T09:42:49;7.85;;;5.03;;
75639;SDS011;64233;51.486;6.332;2023-08-20T09:45:16;9.52;;;5.97;;
75639;SDS011;64233;51.486;6.332;2023-08-20T09:47:42;7.53;;;5.28;;
75639;SDS011;64233;51.486;6.332;2023-08-20T09:50:12;11.05;;;5.93;;
75639;SDS011;64233;51.486;6.332;2023-08-20T09:52:39;8.48;;;5.47;;
75639;SDS011;64233;51.486;6.332;2023-08-20T09:55:13;7.35;;;5.15;;
75639;SDS011;64233;51.486;6.332;2023-08-20T09:57:41;9.77;;;4.07;;
75639;SDS011;64233;51.486;6.332;2023-08-20T10:00:08;8.32;;;5.60;;
75639;SDS011;64233;51.486;6.332;2023-08-20T10:02:35;10.07;;;5.05;;
75639;SDS011;64233;51.486;6.332;2023-08-20T10:05:02;9.88;;;5.00;;
75639;SDS011;64233;51.486;6.332;2023-08-20T10:07:29;10.05;;;5.25;;
75639;SDS011;64233;51.486;6.332;2023-08-20T10:09:58;8.60;;;5.03;;
75639;SDS011;64233;51.486;6.332;2023-08-20T10:12:26;11.93;;;5.45;;
75639;SDS011;64233;51.486;6.332;2023-08-20T10:14:51;14.55;;;7.32;;
75639;SDS011;64233;51.486;6.332;2023-08-20T10:17:17;12.27;;;7.65;;
75639;SDS011;64233;51.486;6.332;2023-08-20T10:19:42;9.13;;;5.90;;
75639;SDS011;64233;51.486;6.332;2023-08-20T10:22:08;9.45;;;5.45;;
75639;SDS011;64233;51.486;6.332;2023-08-20T10:24:40;7.63;;;5.88;;
75639;SDS011;64233;51.486;6.332;2023-08-20T10:27:25;9.75;;;4.72;;
75639;SDS011;64233;51.486;6.332;2023-08-20T10:29:52;11.48;;;6.93;;
75639;SDS011;64233;51.486;6.332;2023-08-20T10:32:18;8.60;;;5.28;;
75639;SDS011;64233;51.486;6.332;2023-08-20T10:34:47;13.40;;;6.00;;
75639;SDS011;64233;51.486;6.332;2023-08-20T10:37:15;5.90;;;4.32;;
75639;SDS011;64233;51.486;6.332;2023-08-20T10:39:41;7.13;;;4.63;;
75639;SDS011;64233;51.486;6.332;2023-08-20T10:50:02;5.90;;;3.22;;
75639;SDS011;64233;51.486;6.332;2023-08-20T10:52:28;6.30;;;2.38;;
75639;SDS011;64233;51.486;6.332;2023-08-20T10:54:53;4.40;;;2.05;;
75639;SDS011;64233;51.486;6.332;2023-08-20T10:57:21;8.07;;;2.97;;
75639;SDS011;64233;51.486;6.332;2023-08-20T10:59:56;9.02;;;3.08;;
75639;SDS011;64233;51.486;6.332;2023-08-20T11:02:23;6.68;;;2.40;;
75639;SDS011;64233;51.486;6.332;2023-08-20T11:04:49;6.25;;;2.67;;
75639;SDS011;64233;51.486;6.332;2023-08-20T11:07:17;6.10;;;2.53;;
75639;SDS011;64233;51.486;6.332;2023-08-20T11:09:43;9.52;;;1.95;;
75639;SDS011;64233;51.486;6.332;2023-08-20T11:12:09;11.27;;;3.50;;
75639;SDS011;64233;51.486;6.332;2023-08-20T11:14:35;6.40;;;2.13;;
75639;SDS011;64233;51.486;6.332;2023-08-20T11:17:00;4.13;;;2.25;;
75639;SDS011;64233;51.486;6.332;2023-08-20T11:19:26;5.32;;;2.50;;
75639;SDS011;64233;51.486;6.332;2023-08-20T11:21:51;2.95;;;2.05;;
75639;SDS011;64233;51.486;6.332;2023-08-20T11:24:17;2.80;;;1.80;;
75639;SDS011;64233;51.486;6.332;2023-08-20T11:26:44;2.72;;;1.60;;
75639;SDS011;64233;51.486;6.332;2023-08-20T11:29:10;4.43;;;2.00;;
75639;SDS011;64233;51.486;6.332;2023-08-20T11:31:45;5.53;;;2.63;;
75639;SDS011;64233;51.486;6.332;2023-08-20T11:34:11;3.72;;;1.48;;
75639;SDS011;64233;51.486;6.332;2023-08-20T11:36:37;6.43;;;2.30;;
75639;SDS011;64233;51.486;6.332;2023-08-20T11:39:04;6.70;;;2.08;;
75639;SDS011;64233;51.486;6.332;2023-08-20T11:41:29;5.82;;;2.42;;
75639;SDS011;64233;51.486;6.332;2023-08-20T11:43:55;7.50;;;2.15;;
75639;SDS011;64233;51.486;6.332;2023-08-20T11:46:22;9.07;;;2.47;;
75639;SDS011;64233;51.486;6.332;2023-08-20T11:49:01;4.97;;;1.75;;
75639;SDS011;64233;51.486;6.332;2023-08-20T11:51:27;5.82;;;2.60;;
75639;SDS011;64233;51.486;6.332;2023-08-20T11:53:52;7.57;;;2.22;;
75639;SDS011;64233;51.486;6.332;2023-08-20T11:56:18;3.67;;;1.98;;
75639;SDS011;64233;51.486;6.332;2023-08-20T11:58:43;5.95;;;1.83;;
75639;SDS011;64233;51.486;6.332;2023-08-20T12:01:08;4.50;;;2.08;;
75639;SDS011;64233;51.486;6.332;2023-08-20T12:03:34;2.85;;;1.48;;
75639;SDS011;64233;51.486;6.332;2023-08-20T12:06:16;5.13;;;1.90;;
75639;SDS011;64233;51.486;6.332;2023-08-20T12:08:42;3.10;;;1.92;;
75639;SDS011;64233;51.486;6.332;2023-08-20T12:11:08;3.13;;;1.60;;
75639;SDS011;64233;51.486;6.332;2023-08-20T12:13:34;4.85;;;1.33;;
75639;SDS011;64233;51.486;6.332;2023-08-20T12:16:00;3.20;;;1.83;;
75639;SDS011;64233;51.486;6.332;2023-08-20T12:18:25;2.33;;;1.37;;
75639;SDS011;64233;51.486;6.332;2023-08-20T12:20:50;5.90;;;1.60;;
75639;SDS011;64233;51.486;6.332;2023-08-20T12:23:15;4.03;;;1.90;;
75639;SDS011;64233;51.486;6.332;2023-08-20T12:25:41;2.30;;;1.50;;
75639;SDS011;64233;51.486;6.332;2023-08-20T12:28:07;4.07;;;1.35;;
75639;SDS011;64233;51.486;6.332;2023-08-20T12:30:33;3.72;;;1.17;;
75639;SDS011;64233;51.486;6.332;2023-08-20T12:33:03;3.65;;;1.52;;
75639;SDS011;64233;51.486;6.332;2023-08-20T12:35:28;4.68;;;1.50;;
75639;SDS011;64233;51.486;6.332;2023-08-20T12:37:54;5.00;;;1.50;;
75639;SDS011;64233;51.486;6.332;2023-08-20T12:40:19;1.40;;;0.98;;
75639;SDS011;64233;51.486;6.332;2023-08-20T12:42:44;2.70;;;1.17;;
75639;SDS011;64233;51.486;6.332;2023-08-20T12:45:10;4.07;;;1.30;;
75639;SDS011;64233;51.486;6.332;2023-08-20T12:47:35;3.40;;;1.58;;
75639;SDS011;64233;51.486;6.332;2023-08-20T12:50:01;2.45;;;1.13;;
75639;SDS011;64233;51.486;6.332;2023-08-20T12:52:28;4.28;;;1.20;;
75639;SDS011;64233;51.486;6.332;2023-08-20T12:54:53;5.70;;;1.60;;
75639;SDS011;64233;51.486;6.332;2023-08-20T12:57:18;4.30;;;1.10;;
75639;SDS011;64233;51.486;6.332;2023-08-20T12:59:43;4.23;;;1.93;;
75639;SDS011;64233;51.486;6.332;2023-08-20T13:02:10;3.63;;;1.30;;
75639;SDS011;64233;51.486;6.332;2023-08-20T13:04:35;4.50;;;1.45;;
75639;SDS011;64233;51.486;6.332;2023-08-20T13:07:01;5.53;;;1.35;;
75639;SDS011;64233;51.486;6.332;2023-08-20T13:09:27;3.42;;;1.40;;
75639;SDS011;64233;51.486;6.332;2023-08-20T13:11:53;4.88;;;1.75;;
75639;SDS011;64233;51.486;6.332;2023-08-20T13:14:20;4.88;;;1.88;;
75639;SDS011;64233;51.486;6.332;2023-08-20T13:16:46;2.97;;;1.17;;
75639;SDS011;64233;51.486;6.332;2023-08-20T13:19:11;4.50;;;1.27;;
75639;SDS011;64233;51.486;6.332;2023-08-20T13:21:36;4.20;;;1.92;;
75639;SDS011;64233;51.486;6.332;2023-08-20T13:24:02;6.43;;;1.97;;
75639;SDS011;64233;51.486;6.332;2023-08-20T13:26:27;2.70;;;1.45;;
75639;SDS011;64233;51.486;6.332;2023-08-20T13:28:52;2.63;;;1.07;;
75639;SDS011;64233;51.486;6.332;2023-08-20T13:31:18;3.57;;;1.30;;
75639;SDS011;64233;51.486;6.332;2023-08-20T13:33:43;2.53;;;1.13;;
75639;SDS011;64233;51.486;6.332;2023-08-20T13:36:08;19.92;;;2.75;;
75639;SDS011;64233;51.486;6.332;2023-08-20T13:38:34;4.60;;;1.45;;
75639;SDS011;64233;51.486;6.332;2023-08-20T13:40:59;3.28;;;1.23;;
75639;SDS011;64233;51.486;6.332;2023-08-20T13:43:24;2.63;;;1.30;;
75639;SDS011;64233;51.486;6.332;2023-08-20T13:45:50;3.50;;;1.20;;
75639;SDS011;64233;51.486;6.332;2023-08-20T13:48:15;1.77;;;0.70;;
75639;SDS011;64233;51.486;6.332;2023-08-20T13:50:40;4.57;;;1.27;;
75639;SDS011;64233;51.486;6.332;2023-08-20T13:53:05;3.23;;;0.97;;
75639;SDS011;64233;51.486;6.332;2023-08-20T13:55:31;2.83;;;1.10;;
75639;SDS011;64233;51.486;6.332;2023-08-20T13:57:56;1.48;;;0.88;;
75639;SDS011;64233;51.486;6.332;2023-08-20T14:00:22;2.70;;;1.38;;
75639;SDS011;64233;51.486;6.332;2023-08-20T14:02:47;5.10;;;1.05;;
75639;SDS011;64233;51.486;6.332;2023-08-20T14:05:13;3.45;;;1.20;;
75639;SDS011;64233;51.486;6.332;2023-08-20T14:07:38;4.00;;;0.90;;
75639;SDS011;64233;51.486;6.332;2023-08-20T14:10:03;3.88;;;1.10;;
75639;SDS011;64233;51.486;6.332;2023-08-20T14:12:29;5.85;;;1.23;;
75639;SDS011;64233;51.486;6.332;2023-08-20T14:14:55;4.13;;;1.20;;
75639;SDS011;64233;51.486;6.332;2023-08-20T14:17:20;4.97;;;1.20;;
75639;SDS011;64233;51.486;6.332;2023-08-20T14:19:46;4.43;;;1.20;;
75639;SDS011;64233;51.486;6.332;2023-08-20T14:22:11;5.50;;;1.63;;
75639;SDS011;64233;51.486;6.332;2023-08-20T14:24:36;2.83;;;1.23;;
75639;SDS011;64233;51.486;6.332;2023-08-20T14:27:02;3.83;;;1.27;;
75639;SDS011;64233;51.486;6.332;2023-08-20T14:29:27;2.90;;;0.95;;
75639;SDS011;64233;51.486;6.332;2023-08-20T14:31:53;2.25;;;0.73;;
75639;SDS011;64233;51.486;6.332;2023-08-20T14:34:18;2.97;;;1.13;;
75639;SDS011;64233;51.486;6.332;2023-08-20T14:36:44;1.75;;;1.10;;
75639;SDS011;64233;51.486;6.332;2023-08-20T14:39:09;3.03;;;1.00;;
75639;SDS011;64233;51.486;6.332;2023-08-20T14:41:34;4.95;;;1.38;;
75639;SDS011;64233;51.486;6.332;2023-08-20T14:44:00;1.77;;;0.87;;